createdAt,value
2022-08-05T00:00:48.343Z,23.10
2022-08-05T00:03:15.741Z,22.90
2022-08-05T00:06:04.579Z,22.60
2022-08-05T00:08:34.835Z,22.70
2022-08-05T00:11:00.582Z,22.80
2022-08-05T00:13:39.300Z,22.90
2022-08-05T00:16:06.260Z,23.10
2022-08-05T00:18:32.386Z,23.10
2022-08-05T00:20:56.919Z,22.90
2022-08-05T00:23:44.792Z,22.80
2022-08-05T00:26:04.915Z,22.90
2022-08-05T00:28:29.602Z,22.90
2022-08-05T00:30:53.709Z,22.80
2022-08-05T00:34:54.079Z,22.70
2022-08-05T00:36:16.637Z,22.60
2022-08-05T00:38:46.999Z,22.70
2022-08-05T00:41:11.564Z,22.60
2022-08-05T00:43:46.602Z,22.70
2022-08-05T00:46:11.465Z,22.70
2022-08-05T00:48:51.288Z,22.50
2022-08-05T00:51:51.067Z,22.50
2022-08-05T00:54:03.087Z,22.50
2022-08-05T00:56:27.416Z,22.30
2022-08-05T00:58:51.228Z,22.30
2022-08-05T01:01:42.904Z,22.00
2022-08-05T01:04:02.429Z,21.90
2022-08-05T01:06:35.453Z,22.10
2022-08-05T01:09:01.028Z,22.40
2022-08-05T01:11:37.176Z,22.00
2022-08-05T01:14:08.461Z,21.70
2022-08-05T01:16:40.220Z,21.80
2022-08-05T01:19:46.255Z,21.80
2022-08-05T01:22:24.139Z,21.80
2022-08-05T01:25:13.745Z,21.80
2022-08-05T01:28:18.337Z,21.70
2022-08-05T01:30:53.745Z,21.60
2022-08-05T01:33:25.167Z,21.70
2022-08-05T01:35:53.431Z,21.90
2022-08-05T01:38:27.119Z,21.40
2022-08-05T01:40:54.465Z,21.80
2022-08-05T01:43:22.444Z,21.70
2022-08-05T01:45:54.057Z,21.90
2022-08-05T01:48:21.319Z,21.80
2022-08-05T01:50:51.304Z,21.80
2022-08-05T01:53:37.399Z,21.90
2022-08-05T01:56:04.861Z,22.00
2022-08-05T01:58:40.887Z,22.00
2022-08-05T02:01:15.988Z,22.00
2022-08-05T02:03:50.749Z,22.20
2022-08-05T02:06:33.566Z,22.20
2022-08-05T02:08:59.504Z,22.30
2022-08-05T02:11:33.477Z,22.10
2022-08-05T02:14:06.845Z,22.10
2022-08-05T02:16:44.053Z,22.20
2022-08-05T02:19:14.233Z,22.10
2022-08-05T02:21:49.243Z,22.10
2022-08-05T02:24:23.053Z,22.00
2022-08-05T02:26:53.871Z,22.00
2022-08-05T02:29:26.078Z,22.00
2022-08-05T02:32:11.420Z,21.70
2022-08-05T02:34:37.550Z,21.80
2022-08-05T02:37:07.243Z,21.90
2022-08-05T02:39:36.639Z,22.00
2022-08-05T02:42:07.146Z,22.00
2022-08-05T02:44:37.489Z,21.90
2022-08-05T02:47:01.637Z,21.70
2022-08-05T02:49:27.489Z,21.80
2022-08-05T02:52:04.076Z,21.60
2022-08-05T02:54:36.091Z,21.80
2022-08-05T02:57:03.077Z,21.70
2022-08-05T02:59:30.994Z,21.80
2022-08-05T03:02:13.862Z,21.50
2022-08-05T03:04:39.087Z,21.00
2022-08-05T03:07:02.928Z,21.10
2022-08-05T03:09:37.570Z,21.10
2022-08-05T03:12:08.768Z,21.00
2022-08-05T03:14:32.448Z,20.80
2022-08-05T03:16:56.138Z,21.00
2022-08-05T03:19:34.637Z,21.20
2022-08-05T03:21:59.946Z,21.40
2022-08-05T03:24:30.289Z,21.20
2022-08-05T03:26:54.586Z,21.50
2022-08-05T03:29:18.792Z,21.20
2022-08-05T03:31:56.978Z,21.40
2022-08-05T03:34:25.460Z,21.60
2022-08-05T03:36:50.772Z,21.60
2022-08-05T03:39:20.024Z,21.60
2022-08-05T03:41:50.476Z,21.70
2022-08-05T03:44:19.790Z,21.70
2022-08-05T03:46:43.812Z,21.70
2022-08-05T03:49:09.974Z,21.80
2022-08-05T03:52:48.331Z,21.70
2022-08-05T03:55:53.047Z,21.80
2022-08-05T03:57:29.023Z,21.60
2022-08-05T04:00:10.056Z,21.70
2022-08-05T04:02:52.328Z,21.60
2022-08-05T04:05:23.550Z,21.70
2022-08-05T04:07:57.363Z,21.80
2022-08-05T04:10:22.780Z,21.60
2022-08-05T04:12:46.562Z,21.70
2022-08-05T04:15:15.667Z,21.40
2022-08-05T04:17:56.299Z,21.20
2022-08-05T04:20:23.396Z,21.20
2022-08-05T04:22:48.441Z,21.40
2022-08-05T04:25:12.588Z,21.50
2022-08-05T04:27:43.937Z,21.40
2022-08-05T04:30:21.266Z,21.20
2022-08-05T04:32:45.032Z,20.90
2022-08-05T04:35:17.578Z,20.80
2022-08-05T04:38:02.285Z,20.60
2022-08-05T04:40:28.916Z,21.00
2022-08-05T04:42:53.405Z,20.90
2022-08-05T04:45:31.383Z,21.00
2022-08-05T04:48:06.882Z,21.10
2022-08-05T04:51:02.925Z,21.00
2022-08-05T04:53:23.351Z,20.80
2022-08-05T04:56:14.682Z,20.80
2022-08-05T04:58:32.143Z,20.90
2022-08-05T05:00:56.424Z,21.00
2022-08-05T05:03:20.473Z,21.20
2022-08-05T05:06:36.516Z,21.30
2022-08-05T05:08:30.242Z,21.20
2022-08-05T05:10:56.674Z,21.40
2022-08-05T05:13:20.738Z,21.20
2022-08-05T05:15:57.220Z,21.00
2022-08-05T05:18:31.573Z,20.90
2022-08-05T05:20:57.270Z,20.90
2022-08-05T05:23:22.316Z,20.80
2022-08-05T05:25:46.630Z,21.20
2022-08-05T05:28:13.785Z,21.20
2022-08-05T05:30:37.657Z,21.30
2022-08-05T05:33:13.962Z,21.20
2022-08-05T05:35:42.610Z,21.00
2022-08-05T05:38:09.409Z,20.90
2022-08-05T05:40:37.790Z,20.50
2022-08-05T05:43:08.551Z,20.50
2022-08-05T05:45:34.291Z,20.90
2022-08-05T05:48:07.196Z,20.70
2022-08-05T05:50:32.959Z,20.90
2022-08-05T05:52:57.760Z,20.70
2022-08-05T05:55:23.220Z,20.40
2022-08-05T05:58:06.906Z,20.70
2022-08-05T06:00:34.448Z,20.90
2022-08-05T06:02:59.918Z,20.60
2022-08-05T06:05:24.954Z,20.00
2022-08-05T06:08:01.272Z,20.30
2022-08-05T06:10:29.392Z,19.60
2022-08-05T06:12:58.237Z,20.10
2022-08-05T06:15:23.665Z,20.20
2022-08-05T06:17:52.652Z,20.20
2022-08-05T06:20:21.406Z,19.80
2022-08-05T06:22:45.882Z,20.10
2022-08-05T06:25:24.305Z,19.70
2022-08-05T06:28:10.756Z,19.60
2022-08-05T06:30:33.130Z,20.10
2022-08-05T06:32:58.774Z,20.20
2022-08-05T06:36:03.380Z,20.30
2022-08-05T06:38:11.679Z,20.40
2022-08-05T06:40:35.637Z,19.70
2022-08-05T06:43:05.953Z,19.50
2022-08-05T06:46:06.528Z,19.90
2022-08-05T06:48:55.427Z,20.00
2022-08-05T06:51:23.779Z,20.10
2022-08-05T06:53:53.861Z,20.40
2022-08-05T06:56:26.377Z,20.40
2022-08-05T06:58:51.113Z,20.30
2022-08-05T07:01:14.699Z,20.10
2022-08-05T07:03:45.865Z,20.00
2022-08-05T07:06:14.302Z,20.10
2022-08-05T07:08:39.022Z,19.90
2022-08-05T07:11:06.232Z,19.70
2022-08-05T07:13:59.888Z,20.00
2022-08-05T07:18:00.691Z,19.90
2022-08-05T07:20:05.017Z,20.10
2022-08-05T07:22:09.639Z,19.70
2022-08-05T07:24:35.094Z,19.60
2022-08-05T07:27:08.808Z,19.60
2022-08-05T07:30:27.529Z,19.90
2022-08-05T07:32:16.233Z,20.00
2022-08-05T07:34:42.413Z,19.90
2022-08-05T07:37:06.270Z,19.50
2022-08-05T07:40:04.696Z,19.40
2022-08-05T07:42:19.438Z,19.80
2022-08-05T07:44:57.596Z,20.00
2022-08-05T07:47:25.795Z,19.80
2022-08-05T07:49:54.278Z,19.70
2022-08-05T07:52:18.412Z,19.30
2022-08-05T07:54:49.142Z,19.30
2022-08-05T07:57:41.545Z,19.60
2022-08-05T07:59:56.763Z,19.50
2022-08-05T08:05:03.605Z,19.80
2022-08-05T08:07:28.388Z,19.50
2022-08-05T08:09:55.119Z,19.80
2022-08-05T08:12:37.318Z,20.00
2022-08-05T08:15:03.586Z,20.10
2022-08-05T08:17:28.091Z,19.30
2022-08-05T08:20:43.361Z,19.40
2022-08-05T08:22:39.149Z,19.90
2022-08-05T08:25:16.463Z,20.00
2022-08-05T08:27:47.641Z,20.10
2022-08-05T08:30:29.976Z,19.80
2022-08-05T08:32:57.737Z,19.70
2022-08-05T08:35:21.779Z,19.70
2022-08-05T08:37:53.601Z,20.00
2022-08-05T08:40:22.324Z,20.20
2022-08-05T08:42:52.984Z,20.20
2022-08-05T08:45:26.057Z,20.10
2022-08-05T08:48:10.423Z,20.10
2022-08-05T08:51:22.613Z,20.00
2022-08-05T08:53:28.956Z,19.70
2022-08-05T08:56:03.203Z,19.50
2022-08-05T08:58:43.081Z,20.00
2022-08-05T09:01:11.020Z,19.90
2022-08-05T09:03:44.982Z,20.20
2022-08-05T09:06:12.124Z,20.10
2022-08-05T09:08:42.070Z,20.10
2022-08-05T09:11:12.122Z,20.20
2022-08-05T09:14:09.885Z,20.00
2022-08-05T09:16:22.242Z,20.00
2022-08-05T09:18:50.594Z,20.10
2022-08-05T09:21:20.919Z,20.00
2022-08-05T09:24:10.275Z,19.90
2022-08-05T09:26:34.012Z,20.20
2022-08-05T09:29:05.822Z,20.10
2022-08-05T09:32:51.325Z,20.30
2022-08-05T09:34:17.114Z,20.40
2022-08-05T09:36:45.655Z,20.80
2022-08-05T09:39:22.214Z,21.00
2022-08-05T09:42:01.495Z,20.80
2022-08-05T09:44:40.933Z,21.10
2022-08-05T09:47:15.653Z,21.30
2022-08-05T09:50:01.375Z,21.40
2022-08-05T09:52:29.247Z,21.60
2022-08-05T09:55:55.167Z,21.80
2022-08-05T09:57:47.690Z,21.50
2022-08-05T10:00:14.716Z,21.70
2022-08-05T10:02:40.936Z,21.80
2022-08-05T10:05:15.805Z,21.80
2022-08-05T10:08:10.831Z,21.90
2022-08-05T10:10:53.909Z,22.10
2022-08-05T10:13:44.109Z,21.60
2022-08-05T10:16:32.124Z,21.40
2022-08-05T10:18:58.172Z,21.80
2022-08-05T10:21:22.950Z,22.10
2022-08-05T10:23:55.430Z,22.20
2022-08-05T10:26:31.753Z,21.70
2022-08-05T10:28:56.671Z,22.00
2022-08-05T10:33:01.150Z,22.10
2022-08-05T10:34:07.177Z,22.10
2022-08-05T10:36:32.159Z,21.90
2022-08-05T10:39:10.330Z,22.40
2022-08-05T10:41:47.721Z,22.50
2022-08-05T10:44:14.830Z,22.30
2022-08-05T10:46:50.655Z,22.40
2022-08-05T10:49:18.481Z,22.80
2022-08-05T10:52:00.362Z,22.90
2022-08-05T10:54:29.884Z,23.40
2022-08-05T10:56:58.533Z,23.30
2022-08-05T11:00:03.390Z,23.00
2022-08-05T11:02:38.247Z,23.40
2022-08-05T11:04:59.143Z,23.40
2022-08-05T11:07:32.742Z,22.90
2022-08-05T11:10:27.219Z,23.00
2022-08-05T11:12:54.974Z,22.60
2022-08-05T11:15:22.573Z,22.70
2022-08-05T11:17:59.384Z,23.10
2022-08-05T11:20:39.160Z,23.30
2022-08-05T11:24:05.193Z,23.20
2022-08-05T11:26:28.545Z,22.40
2022-08-05T11:28:58.735Z,22.50
2022-08-05T11:31:56.714Z,22.70
2022-08-05T11:34:21.174Z,22.70
2022-08-05T11:36:52.998Z,23.10
2022-08-05T11:39:19.441Z,23.20
2022-08-05T11:41:57.888Z,23.30
2022-08-05T11:44:52.819Z,23.40
2022-08-05T11:47:21.996Z,23.20
2022-08-05T11:49:49.738Z,23.00
2022-08-05T11:52:16.160Z,23.10
2022-08-05T11:54:55.058Z,23.10
2022-08-05T11:57:25.546Z,23.60
2022-08-05T11:59:52.149Z,23.60
2022-08-05T12:02:30.637Z,23.80
2022-08-05T12:04:59.511Z,23.70
2022-08-05T12:08:09.186Z,23.60
2022-08-05T12:10:11.613Z,23.90
2022-08-05T12:12:35.999Z,23.70
2022-08-05T12:15:01.110Z,24.00
2022-08-05T12:18:02.560Z,23.80
2022-08-05T12:20:25.469Z,23.90
2022-08-05T12:22:51.795Z,23.70
2022-08-05T12:25:16.530Z,23.50
2022-08-05T12:27:53.221Z,23.00
2022-08-05T12:30:19.092Z,23.20
2022-08-05T12:32:50.396Z,23.40
2022-08-05T12:35:16.901Z,23.60
2022-08-05T12:37:48.006Z,23.50
2022-08-05T12:40:26.554Z,23.80
2022-08-05T12:42:52.495Z,23.40
2022-08-05T12:45:18.637Z,23.60
2022-08-05T12:48:01.484Z,23.20
2022-08-05T12:50:31.007Z,22.90
2022-08-05T12:52:59.646Z,23.10
2022-08-05T12:55:26.467Z,22.90
2022-08-05T12:58:39.087Z,22.80
2022-08-05T13:02:01.960Z,22.70
2022-08-05T13:03:27.052Z,22.80
2022-08-05T13:05:56.510Z,23.00
2022-08-05T13:08:20.150Z,23.10
2022-08-05T13:10:50.235Z,22.90
2022-08-05T13:14:05.202Z,22.90
2022-08-05T13:16:00.108Z,23.00
2022-08-05T13:18:24.101Z,23.30
2022-08-05T13:20:49.218Z,23.40
2022-08-05T13:23:13.590Z,23.20
2022-08-05T13:25:52.486Z,23.20
2022-08-05T13:28:22.776Z,23.30
2022-08-05T13:30:46.347Z,23.50
2022-08-05T13:33:14.317Z,23.40
2022-08-05T13:35:57.383Z,23.50
2022-08-05T13:38:30.330Z,23.50
2022-08-05T13:40:55.041Z,23.30
2022-08-05T13:43:21.857Z,23.30
2022-08-05T13:45:45.992Z,23.50
2022-08-05T13:48:58.457Z,23.80
2022-08-05T13:50:56.358Z,23.90
2022-08-05T13:53:20.350Z,23.70
2022-08-05T13:55:49.237Z,23.90
2022-08-05T13:58:30.306Z,24.00
2022-08-05T14:00:54.712Z,24.30
2022-08-05T14:03:19.712Z,24.20
2022-08-05T14:06:04.787Z,24.00
2022-08-05T14:08:27.659Z,23.80
2022-08-05T14:11:03.277Z,23.70
2022-08-05T14:13:39.963Z,23.90
2022-08-05T14:16:07.848Z,23.80
2022-08-05T14:18:35.944Z,23.80
2022-08-05T14:22:06.984Z,23.80
2022-08-05T14:23:45.265Z,23.90
2022-08-05T14:26:08.897Z,24.10
2022-08-05T14:28:52.586Z,24.20
2022-08-05T14:31:17.182Z,24.40
2022-08-05T14:34:01.122Z,24.40
2022-08-05T14:36:25.030Z,24.60
2022-08-05T14:38:50.449Z,24.20
2022-08-05T14:41:14.881Z,24.30
2022-08-05T14:43:58.863Z,24.00
2022-08-05T14:46:27.225Z,24.10
2022-08-05T14:48:52.238Z,24.20
2022-08-05T14:51:17.962Z,24.10
2022-08-05T14:53:44.316Z,23.80
2022-08-05T14:56:09.126Z,23.90
2022-08-05T14:58:35.384Z,23.90
2022-08-05T15:01:00.432Z,23.80
2022-08-05T15:03:25.167Z,23.90
2022-08-05T15:06:07.858Z,23.90
2022-08-05T15:08:58.525Z,23.80
2022-08-05T15:11:17.705Z,24.20
2022-08-05T15:13:45.781Z,24.40
2022-08-05T15:16:10.995Z,24.40
2022-08-05T15:18:36.877Z,24.10
2022-08-05T15:21:07.154Z,24.00
2022-08-05T15:23:31.530Z,24.10
2022-08-05T15:26:02.724Z,24.30
2022-08-05T15:28:29.967Z,24.30
2022-08-05T15:30:53.573Z,24.40
2022-08-05T15:33:56.678Z,24.10
2022-08-05T15:36:03.404Z,24.00
2022-08-05T15:38:35.497Z,23.90
2022-08-05T15:41:23.005Z,23.90
2022-08-05T15:43:47.144Z,23.90
2022-08-05T15:46:11.026Z,23.90
2022-08-05T15:48:34.802Z,23.80
2022-08-05T15:51:03.496Z,23.70
2022-08-05T15:53:38.105Z,23.60
2022-08-05T15:56:05.706Z,23.70
2022-08-05T15:58:36.854Z,23.80
2022-08-05T16:01:18.365Z,24.10
2022-08-05T16:03:42.771Z,24.20
2022-08-05T16:15:09.471Z,22.80
2022-08-05T16:17:33.170Z,23.70
2022-08-05T16:20:04.758Z,23.80
2022-08-05T16:22:33.959Z,24.00
2022-08-05T16:24:57.897Z,23.90
2022-08-05T16:27:32.027Z,24.00
2022-08-05T16:30:23.172Z,23.90
2022-08-05T16:32:47.345Z,23.70
2022-08-05T16:35:11.196Z,23.60
2022-08-05T16:38:02.423Z,23.60
2022-08-05T16:40:28.549Z,23.50
2022-08-05T16:42:52.936Z,23.80
2022-08-05T16:46:03.478Z,23.70
2022-08-05T16:48:02.939Z,23.50
2022-08-05T16:50:26.919Z,23.30
2022-08-05T16:52:50.544Z,23.20
2022-08-05T16:55:14.468Z,23.30
2022-08-05T16:57:53.077Z,23.20
2022-08-05T17:00:25.953Z,23.20
2022-08-05T17:02:58.174Z,23.40
2022-08-05T17:05:22.039Z,23.30
2022-08-05T17:07:54.704Z,23.30
2022-08-05T17:10:18.749Z,23.40
2022-08-05T17:12:51.781Z,23.30
2022-08-05T17:15:19.598Z,23.10
2022-08-05T17:17:45.738Z,23.30
2022-08-05T17:20:18.528Z,23.20
2022-08-05T17:22:42.152Z,23.00
2022-08-05T17:25:22.171Z,23.30
2022-08-05T17:27:51.758Z,23.20
2022-08-05T17:30:19.154Z,23.10
2022-08-05T17:32:53.565Z,22.90
2022-08-05T17:35:20.638Z,22.80
2022-08-05T17:37:48.273Z,22.80
2022-08-05T17:40:15.438Z,22.80
2022-08-05T17:42:43.006Z,22.90
2022-08-05T17:45:20.409Z,22.90
2022-08-05T17:47:48.870Z,22.90
2022-08-05T17:50:22.756Z,22.90
2022-08-05T17:52:54.866Z,22.70
2022-08-05T17:55:18.914Z,22.70
2022-08-05T17:57:50.030Z,22.70
2022-08-05T18:00:15.380Z,22.80
2022-08-05T18:02:38.965Z,22.50
2022-08-05T18:05:07.777Z,22.80
2022-08-05T18:07:41.562Z,22.90
2022-08-05T18:10:09.897Z,22.70
2022-08-05T18:12:34.340Z,22.60
2022-08-05T18:14:58.031Z,22.50
2022-08-05T18:17:58.890Z,22.50
2022-08-05T18:20:14.139Z,22.50
2022-08-05T18:22:53.892Z,22.50
2022-08-05T18:25:22.123Z,22.40
2022-08-05T18:27:51.951Z,22.40
2022-08-05T18:30:16.637Z,22.60
2022-08-05T18:32:40.286Z,22.50
2022-08-05T18:35:17.232Z,22.40
2022-08-05T18:37:42.974Z,22.50
2022-08-05T18:41:49.925Z,22.30
2022-08-05T18:42:52.022Z,22.40
2022-08-05T18:45:15.932Z,21.90
2022-08-05T18:47:39.833Z,22.10
2022-08-05T18:50:22.425Z,22.10
2022-08-05T18:53:15.617Z,21.90
2022-08-05T18:55:43.098Z,21.90
2022-08-05T18:58:07.822Z,22.10
2022-08-05T19:00:40.247Z,21.70
2022-08-05T19:03:05.821Z,21.90
2022-08-05T19:06:11.040Z,22.00
2022-08-05T19:08:15.756Z,22.00
2022-08-05T19:10:43.099Z,22.00
2022-08-05T19:13:06.914Z,21.80
2022-08-05T19:15:58.740Z,21.90
2022-08-05T19:18:22.064Z,21.70
2022-08-05T19:20:48.325Z,21.50
2022-08-05T19:24:04.543Z,21.60
2022-08-05T19:26:02.215Z,21.60
2022-08-05T19:28:26.645Z,21.30
2022-08-05T19:30:51.482Z,21.40
2022-08-05T19:33:16.954Z,21.40
2022-08-05T19:35:56.396Z,21.20
2022-08-05T19:38:26.360Z,21.30
2022-08-05T19:40:50.370Z,21.20
2022-08-05T19:44:04.228Z,21.40
2022-08-05T19:46:01.844Z,21.40
2022-08-05T19:48:25.343Z,21.30
2022-08-05T19:50:49.338Z,21.20
2022-08-05T19:53:15.074Z,21.20
2022-08-05T19:56:15.202Z,21.20
2022-08-05T19:58:29.530Z,21.00
2022-08-05T20:00:53.779Z,21.00
2022-08-05T20:03:17.646Z,21.10
2022-08-05T20:05:50.343Z,21.00
2022-08-05T20:08:15.558Z,20.90
2022-08-05T20:10:39.168Z,21.00
2022-08-05T20:13:06.968Z,21.00
2022-08-05T20:15:51.569Z,21.00
2022-08-05T20:18:33.552Z,21.00
2022-08-05T20:21:00.037Z,21.00
2022-08-05T20:23:40.526Z,20.70
2022-08-05T20:26:08.152Z,20.70
2022-08-05T20:28:39.141Z,20.60
2022-08-05T20:31:05.481Z,20.70
2022-08-05T20:33:29.514Z,20.70
2022-08-05T20:35:57.165Z,20.60
2022-08-05T20:38:27.126Z,20.50
2022-08-05T20:40:52.562Z,20.60
2022-08-05T20:43:57.447Z,20.40
2022-08-05T20:46:06.790Z,20.50
2022-08-05T20:48:30.436Z,20.50
2022-08-05T20:50:54.384Z,20.40
2022-08-05T20:53:36.590Z,20.20
2022-08-05T20:56:08.230Z,20.30
2022-08-05T20:58:32.666Z,20.40
2022-08-05T21:00:56.834Z,20.20
2022-08-05T21:03:22.099Z,20.20
2022-08-05T21:05:53.810Z,20.20
2022-08-05T21:08:18.855Z,20.20
2022-08-05T21:10:48.674Z,20.10
2022-08-05T21:13:14.836Z,20.00
2022-08-05T21:15:44.539Z,19.90
2022-08-05T21:18:14.805Z,19.90
2022-08-05T21:20:40.277Z,20.00
2022-08-05T21:23:07.440Z,20.00
2022-08-05T21:25:34.048Z,19.90
2022-08-05T21:27:57.916Z,19.80
2022-08-05T21:30:21.959Z,19.80
2022-08-05T21:32:47.610Z,19.60
2022-08-05T21:35:18.330Z,19.60
2022-08-05T21:37:55.231Z,19.50
2022-08-05T21:40:18.910Z,19.50
2022-08-05T21:42:44.523Z,19.40
2022-08-05T21:45:10.701Z,19.50
2022-08-05T21:47:56.526Z,19.40
2022-08-05T21:50:19.846Z,19.40
2022-08-05T21:52:47.385Z,19.40
2022-08-05T21:55:12.973Z,19.30
2022-08-05T21:57:42.689Z,19.20
2022-08-05T22:00:11.158Z,19.30
2022-08-05T22:02:38.217Z,19.20
2022-08-05T22:05:01.798Z,19.10
2022-08-05T22:07:54.234Z,19.20
2022-08-05T22:10:13.158Z,19.10
2022-08-05T22:12:40.235Z,19.20
2022-08-05T22:15:16.344Z,19.10
2022-08-05T22:17:56.307Z,19.10
2022-08-05T22:20:23.684Z,19.10
2022-08-05T22:23:16.676Z,19.20
2022-08-05T22:26:09.648Z,19.00
2022-08-05T22:28:35.292Z,18.90
2022-08-05T22:31:05.253Z,18.80
2022-08-05T22:33:57.662Z,18.80
2022-08-05T22:36:15.218Z,18.70
2022-08-05T22:38:39.079Z,18.60
2022-08-05T22:41:09.513Z,18.70
2022-08-05T22:43:36.270Z,18.70
2022-08-05T22:46:03.506Z,18.50
2022-08-05T22:48:32.751Z,18.40
2022-08-05T22:50:56.430Z,18.40
2022-08-05T22:53:20.420Z,18.40
2022-08-05T22:55:56.964Z,18.30
2022-08-05T22:58:28.325Z,18.30
2022-08-05T23:00:52.337Z,18.20
2022-08-05T23:03:20.792Z,18.20
2022-08-05T23:06:04.507Z,18.20
2022-08-05T23:08:30.395Z,18.20
2022-08-05T23:10:55.005Z,18.10
2022-08-05T23:13:21.210Z,18.00
2022-08-05T23:15:44.918Z,18.00
2022-08-05T23:18:15.917Z,17.80
2022-08-05T23:20:40.052Z,17.90
2022-08-05T23:23:08.623Z,17.90
2022-08-05T23:25:51.778Z,17.80
2022-08-05T23:28:17.382Z,17.70
2022-08-05T23:30:43.782Z,17.60
2022-08-05T23:33:16.172Z,17.50
2022-08-05T23:35:49.332Z,17.50
2022-08-05T23:38:13.209Z,17.40
2022-08-05T23:40:37.934Z,17.40
2022-08-05T23:43:02.086Z,17.30
2022-08-05T23:45:47.026Z,17.30
2022-08-05T23:48:12.111Z,17.30
2022-08-05T23:50:35.789Z,17.30
2022-08-05T23:52:58.346Z,17.20
2022-08-05T23:55:22.431Z,17.30
2022-08-05T23:57:48.832Z,17.20
